createdAt,value
2019-05-12T00:01:42.772Z,87.40
2019-05-12T00:04:48.833Z,87.04
2019-05-12T00:07:53.153Z,86.96
2019-05-12T00:10:58.297Z,86.61
2019-05-12T00:14:02.245Z,86.82
2019-05-12T00:17:08.089Z,87.38
2019-05-12T00:20:11.718Z,86.47
2019-05-12T00:23:26.744Z,86.49
2019-05-12T00:26:20.762Z,86.19
2019-05-12T00:29:24.533Z,86.46
2019-05-12T00:32:28.301Z,86.42
2019-05-12T00:35:31.902Z,86.16
2019-05-12T00:38:35.556Z,86.94
2019-05-12T00:41:39.305Z,86.73
2019-05-12T00:44:43.014Z,86.18
2019-05-12T00:47:48.102Z,84.72
2019-05-12T00:50:51.962Z,81.53
2019-05-12T00:53:57.586Z,82.08
2019-05-12T00:57:02.037Z,81.99
2019-05-12T01:00:08.721Z,81.12
2019-05-12T01:03:12.579Z,81.33
2019-05-12T01:06:17.789Z,83.39
2019-05-12T01:09:21.982Z,85.01
2019-05-12T01:12:25.744Z,86.08
2019-05-12T01:15:29.492Z,85.89
2019-05-12T01:18:33.840Z,85.66
2019-05-12T01:21:37.870Z,87.08
2019-05-12T01:24:41.783Z,87.70
2019-05-12T01:27:48.223Z,86.91
2019-05-12T01:30:50.922Z,86.89
2019-05-12T01:33:54.782Z,88.13
2019-05-12T01:37:00.115Z,88.45
2019-05-12T01:40:05.124Z,88.33
2019-05-12T01:43:09.124Z,88.11
2019-05-12T01:46:14.067Z,87.89
2019-05-12T01:49:18.645Z,88.85
2019-05-12T01:52:22.830Z,88.35
2019-05-12T01:55:28.091Z,87.65
2019-05-12T01:58:32.040Z,88.04
2019-05-12T02:01:35.750Z,87.64
2019-05-12T02:04:58.812Z,87.54
2019-05-12T02:08:03.337Z,87.36
2019-05-12T02:11:25.089Z,87.49
2019-05-12T02:14:28.677Z,88.00
2019-05-12T02:17:32.535Z,88.29
2019-05-12T02:20:38.179Z,88.14
2019-05-12T02:23:41.479Z,88.84
2019-05-12T02:26:45.186Z,88.63
2019-05-12T02:29:48.837Z,89.06
2019-05-12T02:32:58.858Z,89.60
2019-05-12T02:35:59.251Z,89.52
2019-05-12T02:39:05.335Z,89.71
2019-05-12T02:42:09.846Z,88.46
2019-05-12T02:45:15.610Z,88.72
2019-05-12T02:48:19.512Z,88.52
2019-05-12T02:51:24.889Z,87.95
2019-05-12T02:54:49.410Z,88.18
2019-05-12T02:57:35.005Z,88.60
2019-05-12T03:00:39.466Z,88.64
2019-05-12T03:03:45.555Z,89.23
2019-05-12T03:06:49.594Z,88.11
2019-05-12T03:09:55.094Z,87.91
2019-05-12T03:12:58.933Z,87.27
2019-05-12T03:16:04.775Z,87.89
2019-05-12T03:19:08.192Z,88.23
2019-05-12T03:22:14.202Z,87.48
2019-05-12T03:25:24.591Z,86.69
2019-05-12T03:28:25.568Z,86.86
2019-05-12T03:31:31.250Z,86.50
2019-05-12T03:34:38.108Z,85.35
2019-05-12T03:37:38.714Z,85.11
2019-05-12T03:40:45.140Z,85.69
2019-05-12T03:43:48.347Z,85.29
2019-05-12T03:46:54.334Z,85.01
2019-05-12T03:49:57.463Z,84.53
2019-05-12T03:53:06.364Z,84.51
2019-05-12T03:56:06.808Z,84.61
2019-05-12T03:59:10.539Z,83.88
2019-05-12T04:02:15.013Z,84.93
2019-05-12T04:05:19.550Z,84.60
2019-05-12T04:08:24.595Z,84.31
2019-05-12T04:11:28.501Z,84.45
2019-05-12T04:14:34.525Z,83.97
2019-05-12T04:17:37.668Z,83.99
2019-05-12T04:20:41.386Z,83.91
2019-05-12T04:23:45.192Z,84.05
2019-05-12T04:26:48.863Z,84.09
2019-05-12T04:29:54.739Z,83.69
2019-05-12T04:32:57.823Z,83.92
2019-05-12T04:36:01.450Z,83.65
2019-05-12T04:39:07.129Z,83.19
2019-05-12T04:42:10.988Z,82.19
2019-05-12T04:45:15.871Z,82.76
2019-05-12T04:48:21.491Z,83.19
2019-05-12T04:51:26.171Z,82.68
2019-05-12T04:54:29.787Z,82.89
2019-05-12T04:57:34.615Z,83.72
2019-05-12T05:00:38.379Z,82.94
2019-05-12T05:03:44.284Z,83.42
2019-05-12T05:06:47.328Z,82.80
2019-05-12T05:09:50.901Z,82.82
2019-05-12T05:12:54.455Z,82.99
2019-05-12T05:15:57.998Z,83.00
2019-05-12T05:19:03.649Z,82.46
2019-05-12T05:22:07.688Z,82.54
2019-05-12T05:25:11.284Z,82.93
2019-05-12T05:28:14.901Z,81.94
2019-05-12T05:31:18.510Z,81.86
2019-05-12T05:34:23.595Z,81.86
2019-05-12T05:37:30.689Z,82.67
2019-05-12T05:40:32.603Z,82.27
2019-05-12T05:43:36.192Z,81.22
2019-05-12T05:46:48.304Z,81.22
2019-05-12T05:49:45.499Z,81.26
2019-05-12T05:52:49.175Z,80.30
2019-05-12T05:55:58.633Z,80.60
2019-05-12T05:58:58.175Z,80.01
2019-05-12T06:02:04.702Z,79.87
2019-05-12T06:05:07.250Z,80.46
2019-05-12T06:08:18.641Z,80.83
2019-05-12T06:11:26.550Z,79.58
2019-05-12T06:14:23.558Z,80.41
2019-05-12T06:17:27.020Z,80.61
2019-05-12T06:20:37.463Z,80.57
2019-05-12T06:23:39.222Z,79.79
2019-05-12T06:26:56.638Z,79.44
2019-05-12T06:29:54.479Z,79.38
2019-05-12T06:32:54.658Z,78.55
2019-05-12T06:35:58.235Z,77.06
2019-05-12T06:39:04.253Z,77.12
2019-05-12T06:42:14.193Z,76.86
2019-05-12T06:45:14.357Z,76.68
2019-05-12T06:48:24.433Z,76.84
2019-05-12T06:51:25.905Z,76.68
2019-05-12T06:54:30.680Z,77.17
2019-05-12T06:57:34.390Z,77.79
2019-05-12T07:00:37.953Z,77.38
2019-05-12T07:03:43.887Z,76.02
2019-05-12T07:06:49.861Z,75.69
2019-05-12T07:09:54.951Z,74.01
2019-05-12T07:13:01.701Z,72.60
2019-05-12T07:16:22.105Z,73.04
2019-05-12T07:19:23.362Z,73.80
2019-05-12T07:22:31.828Z,73.75
2019-05-12T07:25:36.282Z,74.77
2019-05-12T07:28:40.513Z,73.22
2019-05-12T07:31:44.224Z,72.09
2019-05-12T07:34:48.114Z,71.15
2019-05-12T07:37:53.917Z,74.28
2019-05-12T07:41:00.868Z,74.29
2019-05-12T07:44:04.058Z,73.95
2019-05-12T07:47:07.678Z,73.54
2019-05-12T07:50:16.309Z,72.56
2019-05-12T07:53:16.765Z,71.79
2019-05-12T07:56:25.955Z,72.07
2019-05-12T07:59:34.172Z,72.30
2019-05-12T08:02:31.932Z,71.23
2019-05-12T08:05:36.465Z,68.73
2019-05-12T08:08:44.156Z,66.22
2019-05-12T08:11:45.331Z,64.77
2019-05-12T08:14:48.894Z,59.69
2019-05-12T08:17:55.373Z,61.87
2019-05-12T08:20:59.993Z,65.53
2019-05-12T08:24:03.735Z,66.44
2019-05-12T08:27:07.485Z,65.51
2019-05-12T08:30:13.889Z,63.95
2019-05-12T08:33:17.098Z,64.54
2019-05-12T08:36:20.626Z,64.50
2019-05-12T08:39:25.986Z,64.40
2019-05-12T08:42:29.852Z,63.76
2019-05-12T08:45:37.152Z,64.20
2019-05-12T08:48:39.165Z,62.36
2019-05-12T08:51:44.241Z,62.71
2019-05-12T08:54:49.541Z,62.48
2019-05-12T08:57:54.188Z,62.29
2019-05-12T09:00:57.792Z,60.02
2019-05-12T09:04:06.670Z,58.33
2019-05-12T09:07:06.942Z,57.36
2019-05-12T09:10:10.490Z,56.80
2019-05-12T09:13:14.491Z,54.81
2019-05-12T09:16:20.325Z,56.38
2019-05-12T09:19:26.992Z,56.48
2019-05-12T09:22:29.255Z,59.05
2019-05-12T09:25:34.083Z,56.76
2019-05-12T09:28:49.246Z,57.45
2019-05-12T09:31:44.070Z,55.69
2019-05-12T09:34:53.106Z,53.22
2019-05-12T09:37:53.644Z,53.58
2019-05-12T09:41:01.162Z,52.21
2019-05-12T09:44:07.239Z,51.93
2019-05-12T09:47:21.917Z,44.64
2019-05-12T09:50:20.238Z,46.17
2019-05-12T09:53:23.702Z,47.76
2019-05-12T09:56:27.618Z,43.13
2019-05-12T09:59:33.494Z,38.72
2019-05-12T10:02:39.711Z,36.32
2019-05-12T10:05:44.157Z,35.46
2019-05-12T10:08:48.008Z,35.63
2019-05-12T10:12:00.278Z,36.41
2019-05-12T10:14:57.416Z,36.80
2019-05-12T10:18:06.627Z,36.71
2019-05-12T10:21:10.078Z,32.40
2019-05-12T10:24:12.793Z,32.42
2019-05-12T10:27:21.153Z,32.10
2019-05-12T10:30:23.477Z,33.26
2019-05-12T10:33:27.363Z,34.09
2019-05-12T10:36:31.284Z,31.33
2019-05-12T10:39:34.979Z,33.02
2019-05-12T10:42:39.799Z,36.07
2019-05-12T10:45:44.285Z,35.17
2019-05-12T10:48:47.972Z,30.86
2019-05-12T10:51:53.803Z,32.72
2019-05-12T10:54:57.198Z,32.41
2019-05-12T10:58:01.997Z,34.00
2019-05-12T11:01:08.559Z,32.20
2019-05-12T11:04:14.190Z,31.02
2019-05-12T11:07:17.421Z,29.64
2019-05-12T11:10:23.209Z,31.75
2019-05-12T11:13:26.553Z,32.26
2019-05-12T11:16:32.061Z,32.97
2019-05-12T11:19:40.872Z,30.33
2019-05-12T11:22:40.907Z,31.04
2019-05-12T11:25:44.575Z,31.52
2019-05-12T11:28:48.189Z,31.91
2019-05-12T11:31:53.821Z,29.92
2019-05-12T11:34:57.378Z,30.82
2019-05-12T11:38:01.032Z,28.77
2019-05-12T11:41:04.654Z,29.70
2019-05-12T11:44:08.341Z,29.09
2019-05-12T11:47:14.678Z,31.66
2019-05-12T11:50:17.527Z,31.27
2019-05-12T11:53:21.830Z,28.20
2019-05-12T11:56:26.599Z,29.25
2019-05-12T11:59:30.207Z,29.64
2019-05-12T12:02:34.293Z,28.28
2019-05-12T12:05:39.722Z,28.07
2019-05-12T12:08:44.179Z,27.95
2019-05-12T12:11:54.659Z,27.14
2019-05-12T12:14:54.810Z,27.79
2019-05-12T12:18:03.823Z,27.10
2019-05-12T12:21:07.543Z,29.39
2019-05-12T12:24:09.430Z,28.19
2019-05-12T12:27:14.228Z,26.44
2019-05-12T12:30:20.166Z,27.53
2019-05-12T12:33:24.065Z,28.92
2019-05-12T12:36:27.771Z,28.29
2019-05-12T12:39:31.494Z,26.81
2019-05-12T12:42:36.967Z,24.66
2019-05-12T12:45:45.212Z,25.33
2019-05-12T12:48:48.846Z,28.21
2019-05-12T12:51:52.553Z,30.49
2019-05-12T12:54:59.392Z,28.89
2019-05-12T12:58:03.343Z,28.69
2019-05-12T13:01:07.225Z,27.73
2019-05-12T13:04:13.143Z,27.26
2019-05-12T13:07:16.229Z,29.20
2019-05-12T13:10:20.022Z,28.59
2019-05-12T13:13:24.598Z,27.99
2019-05-12T13:16:28.301Z,28.35
2019-05-12T13:19:33.230Z,25.84
2019-05-12T13:22:37.066Z,27.75
2019-05-12T13:25:48.378Z,28.39
2019-05-12T13:28:53.140Z,29.01
2019-05-12T13:31:54.591Z,27.36
2019-05-12T13:34:58.222Z,26.13
2019-05-12T13:38:05.355Z,27.96
2019-05-12T13:41:09.691Z,27.89
2019-05-12T13:44:14.646Z,28.54
2019-05-12T13:47:18.490Z,26.14
2019-05-12T13:50:26.474Z,25.75
2019-05-12T13:53:29.983Z,25.97
2019-05-12T13:56:35.862Z,26.19
2019-05-12T13:59:43.530Z,26.41
2019-05-12T14:02:48.919Z,27.51
2019-05-12T14:05:55.215Z,26.88
2019-05-12T14:08:59.135Z,28.60
2019-05-12T14:12:04.328Z,27.93
2019-05-12T14:15:08.409Z,26.82
2019-05-12T14:18:16.547Z,27.83
2019-05-12T14:21:17.459Z,28.05
2019-05-12T14:24:23.428Z,31.99
2019-05-12T14:27:28.830Z,33.67
2019-05-12T14:30:33.663Z,34.43
2019-05-12T14:33:39.449Z,34.55
2019-05-12T14:36:43.368Z,35.66
2019-05-12T14:39:50.291Z,35.97
2019-05-12T14:42:54.401Z,36.76
2019-05-12T14:46:00.220Z,36.26
2019-05-12T14:49:03.650Z,37.25
2019-05-12T14:52:07.268Z,36.46
2019-05-12T14:55:11.164Z,34.70
2019-05-12T14:58:20.186Z,34.12
2019-05-12T15:01:20.402Z,34.97
2019-05-12T15:04:27.970Z,33.84
2019-05-12T15:07:29.547Z,34.08
2019-05-12T15:10:33.779Z,36.29
2019-05-12T15:13:37.938Z,35.40
2019-05-12T15:16:44.208Z,35.47
2019-05-12T15:19:47.108Z,35.98
2019-05-12T15:22:52.757Z,34.83
2019-05-12T15:25:56.588Z,34.56
2019-05-12T15:29:05.291Z,34.86
2019-05-12T15:32:05.882Z,35.03
2019-05-12T15:35:10.902Z,33.28
2019-05-12T15:38:16.645Z,33.65
2019-05-12T15:41:20.284Z,33.81
2019-05-12T15:44:31.534Z,33.95
2019-05-12T15:47:30.225Z,34.10
2019-05-12T15:50:34.336Z,34.51
2019-05-12T15:53:38.136Z,34.49
2019-05-12T15:56:41.948Z,34.22
2019-05-12T15:59:45.568Z,33.62
2019-05-12T16:02:55.859Z,33.60
2019-05-12T16:06:01.284Z,34.59
2019-05-12T16:09:06.583Z,34.04
2019-05-12T16:12:20.035Z,34.76
2019-05-12T16:15:19.187Z,34.71
2019-05-12T16:18:26.720Z,34.21
2019-05-12T16:21:30.501Z,34.47
2019-05-12T16:24:34.281Z,34.57
2019-05-12T16:27:38.570Z,34.60
2019-05-12T16:30:43.889Z,35.23
2019-05-12T16:33:52.977Z,34.57
2019-05-12T16:36:54.875Z,34.65
2019-05-12T16:39:58.613Z,34.87
2019-05-12T16:43:03.944Z,33.24
2019-05-12T16:46:07.798Z,32.95
2019-05-12T16:49:13.861Z,32.52
2019-05-12T16:52:16.783Z,32.73
2019-05-12T16:55:20.726Z,32.58
2019-05-12T16:58:33.121Z,33.84
2019-05-12T17:01:35.305Z,34.99
2019-05-12T17:04:39.173Z,35.30
2019-05-12T17:07:44.155Z,34.52
2019-05-12T17:10:58.199Z,34.73
2019-05-12T17:13:56.722Z,34.00
2019-05-12T17:16:58.912Z,34.00
2019-05-12T17:20:04.409Z,33.96
2019-05-12T17:23:08.150Z,34.74
2019-05-12T17:26:13.910Z,34.39
2019-05-12T17:29:17.330Z,34.28
2019-05-12T17:32:23.860Z,34.85
2019-05-12T17:35:31.710Z,35.43
2019-05-12T17:38:34.549Z,36.50
2019-05-12T17:41:42.256Z,36.77
2019-05-12T17:44:44.222Z,36.65
2019-05-12T17:47:47.860Z,36.81
2019-05-12T17:50:53.773Z,37.01
2019-05-12T17:53:56.922Z,37.49
2019-05-12T17:57:00.669Z,37.74
2019-05-12T18:00:10.744Z,37.49
2019-05-12T18:03:21.865Z,37.77
2019-05-12T18:06:26.801Z,38.40
2019-05-12T18:09:26.980Z,38.70
2019-05-12T18:12:36.625Z,39.44
2019-05-12T18:15:38.083Z,39.20
2019-05-12T18:18:43.562Z,39.28
2019-05-12T18:21:47.491Z,39.79
2019-05-12T18:24:51.234Z,39.74
2019-05-12T18:27:54.812Z,40.27
2019-05-12T18:30:58.664Z,40.53
2019-05-12T18:34:04.778Z,41.00
2019-05-12T18:37:07.739Z,40.97
2019-05-12T18:40:14.693Z,41.20
2019-05-12T18:43:18.094Z,41.64
2019-05-12T18:46:23.934Z,41.68
2019-05-12T18:49:27.685Z,42.20
2019-05-12T18:52:39.288Z,42.18
2019-05-12T18:55:40.404Z,42.75
2019-05-12T18:58:44.493Z,42.76
2019-05-12T19:01:47.688Z,43.43
2019-05-12T19:04:53.475Z,43.58
2019-05-12T19:07:57.055Z,43.93
2019-05-12T19:11:14.929Z,44.49
2019-05-12T19:14:06.210Z,44.81
2019-05-12T19:17:09.941Z,45.24
2019-05-12T19:20:14.564Z,45.15
2019-05-12T19:23:18.254Z,45.46
2019-05-12T19:26:22.034Z,45.98
2019-05-12T19:29:29.732Z,46.57
2019-05-12T19:32:31.116Z,46.73
2019-05-12T19:35:37.920Z,47.36
2019-05-12T19:38:40.796Z,47.21
2019-05-12T19:41:44.704Z,47.56
2019-05-12T19:44:48.605Z,48.18
2019-05-12T19:47:53.551Z,48.07
2019-05-12T19:50:57.561Z,48.79
2019-05-12T19:54:03.519Z,49.37
2019-05-12T19:57:06.819Z,49.96
2019-05-12T20:00:13.638Z,50.48
2019-05-12T20:03:16.977Z,50.86
2019-05-12T20:06:21.071Z,50.28
2019-05-12T20:09:27.956Z,50.57
2019-05-12T20:12:34.318Z,51.05
2019-05-12T20:15:41.053Z,51.34
2019-05-12T20:18:49.007Z,51.25
2019-05-12T20:21:49.246Z,51.66
2019-05-12T20:24:53.770Z,51.67
2019-05-12T20:28:05.860Z,52.02
2019-05-12T20:31:05.893Z,52.46
2019-05-12T20:34:10.852Z,52.77
2019-05-12T20:37:16.828Z,53.08
2019-05-12T20:40:20.368Z,53.51
2019-05-12T20:43:32.162Z,53.43
2019-05-12T20:46:30.062Z,53.27
2019-05-12T20:49:33.827Z,53.52
2019-05-12T20:52:39.441Z,53.81
2019-05-12T20:55:44.270Z,53.97
2019-05-12T20:58:48.216Z,53.55
2019-05-12T21:01:52.645Z,53.63
2019-05-12T21:05:01.132Z,53.45
2019-05-12T21:08:08.953Z,53.08
2019-05-12T21:11:07.624Z,53.21
2019-05-12T21:14:12.489Z,53.11
2019-05-12T21:17:18.428Z,53.09
2019-05-12T21:20:27.918Z,52.82
2019-05-12T21:23:33.282Z,52.89
2019-05-12T21:26:39.928Z,52.60
2019-05-12T21:29:43.868Z,52.58
2019-05-12T21:32:59.080Z,52.29
2019-05-12T21:35:54.655Z,54.16
2019-05-12T21:38:59.491Z,52.29
2019-05-12T21:42:04.247Z,52.37
2019-05-12T21:45:08.155Z,52.42
2019-05-12T21:48:15.055Z,52.60
2019-05-12T21:51:19.938Z,52.74
2019-05-12T21:54:24.214Z,53.19
2019-05-12T21:57:31.169Z,53.29
2019-05-12T22:00:45.023Z,53.35
2019-05-12T22:03:57.985Z,53.34
2019-05-12T22:06:57.349Z,53.52
2019-05-12T22:10:01.667Z,53.96
2019-05-12T22:13:12.147Z,54.20
2019-05-12T22:16:11.043Z,54.34
2019-05-12T22:19:14.821Z,54.33
2019-05-12T22:22:24.611Z,54.56
2019-05-12T22:25:25.416Z,54.61
2019-05-12T22:28:29.272Z,54.94
2019-05-12T22:31:33.411Z,55.35
2019-05-12T22:34:41.839Z,55.37
2019-05-12T22:37:44.674Z,55.26
2019-05-12T22:40:49.223Z,55.81
2019-05-12T22:43:56.432Z,55.80
2019-05-12T22:47:04.218Z,56.00
2019-05-12T22:50:06.088Z,56.21
2019-05-12T22:53:09.961Z,56.50
2019-05-12T22:56:18.049Z,56.98
2019-05-12T22:59:19.065Z,57.22
2019-05-12T23:02:27.989Z,57.52
2019-05-12T23:05:28.465Z,58.06
2019-05-12T23:08:33.406Z,58.38
2019-05-12T23:11:37.981Z,58.76
2019-05-12T23:14:41.713Z,58.84
2019-05-12T23:17:49.335Z,59.03
2019-05-12T23:20:50.710Z,59.20
2019-05-12T23:23:57.456Z,59.46
2019-05-12T23:27:00.084Z,60.06
2019-05-12T23:30:10.748Z,60.81
2019-05-12T23:33:13.912Z,60.93
2019-05-12T23:36:19.595Z,61.21
2019-05-12T23:39:23.570Z,61.77
2019-05-12T23:42:27.210Z,62.10
2019-05-12T23:45:30.993Z,62.28
2019-05-12T23:48:34.577Z,62.72
2019-05-12T23:51:38.389Z,62.64
2019-05-12T23:54:44.359Z,63.22
2019-05-12T23:57:47.492Z,63.45
